Time;durP1;ratioP1;P1;durP2;ratioP2;P2;SDS_P1;SDS_P2;PMS_P1;PMS_P2;Temp;Humidity;BMP_temperature;BMP_pressure;BME280_temperature;BME280_humidity;BME280_pressure;Samples;Min_cycle;Max_cycle;Signal;HPM_P1;HPM_P2
2021/07/07 00:00:54;;;;;;;0.90;0.70;;;16.90;99.90;;;;;;4928451;29;20462;-78
2021/07/07 00:03:20;;;;;;;0.70;0.60;;;16.90;99.90;;;;;;4942096;28;20285;-78
2021/07/07 00:05:45;;;;;;;0.90;0.70;;;16.90;99.90;;;;;;4929733;29;21232;-77
2021/07/07 00:08:11;;;;;;;0.70;0.50;;;16.80;99.90;;;;;;4923908;29;20204;-78
2021/07/07 00:10:37;;;;;;;2.60;1.73;;;16.80;99.90;;;;;;4931644;29;20183;-78
2021/07/07 00:13:03;;;;;;;0.70;0.60;;;16.80;99.90;;;;;;4925065;29;20286;-77
2021/07/07 00:15:33;;;;;;;0.80;0.63;;;16.80;99.90;;;;;;4933036;29;20422;-78
2021/07/07 00:18:02;;;;;;;0.70;0.50;;;16.80;99.90;;;;;;4929732;29;20467;-78
2021/07/07 00:20:34;;;;;;;0.70;0.50;;;16.80;99.90;;;;;;4936102;29;20482;-78
2021/07/07 00:23:01;;;;;;;0.70;0.50;;;16.80;99.90;;;;;;4930159;29;20515;-78
2021/07/07 00:25:27;;;;;;;0.70;0.50;;;16.80;99.90;;;;;;4927189;29;20486;-78
2021/07/07 00:27:52;;;;;;;1.00;0.83;;;16.80;99.90;;;;;;4935907;29;20415;-78
2021/07/07 00:30:18;;;;;;;0.70;0.60;;;16.80;99.90;;;;;;4933035;28;20658;-78
2021/07/07 00:32:43;;;;;;;1.07;0.97;;;16.80;99.90;;;;;;4929807;29;20183;-78
2021/07/07 00:35:10;;;;;;;0.70;0.50;;;16.70;99.90;;;;;;4939392;29;20633;-78
2021/07/07 00:37:35;;;;;;;0.73;0.57;;;16.70;99.90;;;;;;4925831;29;20266;-78
2021/07/07 00:40:01;;;;;;;0.90;0.70;;;16.70;99.90;;;;;;4921288;29;20526;-78
2021/07/07 00:42:26;;;;;;;0.93;0.80;;;16.60;99.90;;;;;;4930326;29;20175;-78
2021/07/07 00:44:52;;;;;;;0.90;0.60;;;16.50;99.90;;;;;;4934426;29;20167;-78
2021/07/07 00:47:17;;;;;;;0.80;0.70;;;16.50;99.90;;;;;;4933376;29;20195;-78
2021/07/07 00:49:43;;;;;;;0.80;0.63;;;16.30;99.90;;;;;;4927578;29;20195;-78
2021/07/07 00:52:10;;;;;;;1.33;1.23;;;16.30;99.90;;;;;;4931693;29;20176;-78
2021/07/07 00:54:36;;;;;;;0.70;0.50;;;16.30;99.90;;;;;;4928908;29;20181;-78
2021/07/07 00:57:03;;;;;;;0.80;0.60;;;16.30;99.90;;;;;;4936324;29;20430;-78
2021/07/07 00:59:29;;;;;;;1.23;0.77;;;16.30;99.90;;;;;;4924937;29;20447;-78
2021/07/07 01:01:56;;;;;;;2.13;1.33;;;16.20;99.90;;;;;;4932827;29;20447;-78
2021/07/07 01:04:22;;;;;;;0.80;0.60;;;16.10;99.90;;;;;;4927186;29;20467;-78
2021/07/07 01:06:47;;;;;;;0.70;0.50;;;16.10;99.90;;;;;;4935336;29;20421;-77
2021/07/07 01:09:13;;;;;;;0.70;0.60;;;16.10;99.90;;;;;;4935630;29;20175;-78
2021/07/07 01:11:39;;;;;;;1.20;0.63;;;16.10;99.90;;;;;;4930162;29;20243;-78
2021/07/07 01:14:04;;;;;;;0.90;0.80;;;16.10;99.90;;;;;;4925252;29;20214;-78
2021/07/07 01:16:31;;;;;;;0.80;0.73;;;16.10;99.90;;;;;;4928928;29;20975;-78
2021/07/07 01:18:57;;;;;;;0.80;0.60;;;16.10;99.90;;;;;;4919936;29;20186;-78
2021/07/07 01:21:24;;;;;;;0.70;0.60;;;16.00;99.90;;;;;;4924401;29;20447;-78
2021/07/07 01:23:53;;;;;;;1.10;1.00;;;16.10;99.90;;;;;;4936795;29;20455;-77
2021/07/07 01:26:19;;;;;;;0.83;0.70;;;16.00;99.90;;;;;;4937445;29;20414;-78
2021/07/07 01:28:46;;;;;;;0.70;0.50;;;16.00;99.90;;;;;;4937017;29;20779;-78
2021/07/07 01:31:12;;;;;;;1.00;0.70;;;15.90;99.90;;;;;;4922522;29;20471;-77
2021/07/07 01:33:37;;;;;;;1.67;0.97;;;15.90;99.90;;;;;;4931845;29;20450;-78
2021/07/07 01:36:03;;;;;;;0.70;0.60;;;15.90;99.90;;;;;;4925507;29;20242;-78
2021/07/07 01:38:29;;;;;;;1.00;0.70;;;15.90;99.90;;;;;;4932286;29;20176;-78
2021/07/07 01:40:56;;;;;;;0.70;0.60;;;15.80;99.90;;;;;;4937244;29;20262;-78
2021/07/07 01:43:22;;;;;;;0.90;0.80;;;15.80;99.90;;;;;;4933181;29;20226;-78
2021/07/07 01:45:47;;;;;;;0.90;0.90;;;15.80;99.90;;;;;;4928587;29;20427;-78
2021/07/07 01:48:13;;;;;;;0.80;0.60;;;15.80;99.90;;;;;;4936736;29;20822;-78
2021/07/07 01:50:38;;;;;;;0.80;0.60;;;15.80;99.90;;;;;;4936831;29;20195;-78
2021/07/07 01:53:04;;;;;;;0.70;0.50;;;15.70;99.90;;;;;;4934980;29;20179;-78
2021/07/07 01:55:29;;;;;;;2.13;1.93;;;15.70;99.90;;;;;;4932081;29;20555;-78
2021/07/07 01:57:55;;;;;;;1.27;1.17;;;15.70;99.90;;;;;;4935644;29;20186;-78
2021/07/07 02:00:22;;;;;;;0.80;0.60;;;15.70;99.90;;;;;;4935529;29;20545;-78
2021/07/07 02:02:49;;;;;;;0.70;0.50;;;15.70;99.90;;;;;;4934430;29;20688;-78
2021/07/07 02:05:16;;;;;;;0.80;0.60;;;15.60;99.90;;;;;;4935227;29;20961;-78
2021/07/07 02:07:43;;;;;;;0.70;0.50;;;15.60;99.90;;;;;;4951446;28;20422;-78
2021/07/07 02:10:12;;;;;;;0.80;0.70;;;15.60;99.90;;;;;;4936826;29;20443;-78
2021/07/07 02:12:38;;;;;;;0.90;0.60;;;15.70;99.90;;;;;;4933917;29;20857;-78
2021/07/07 02:15:24;;;;;;;0.70;0.60;;;15.70;99.90;;;;;;4936161;29;20429;-78
2021/07/07 02:17:51;;;;;;;1.23;0.60;;;15.60;99.90;;;;;;4936521;29;20490;-78
2021/07/07 02:20:19;;;;;;;5.40;1.00;;;15.60;99.90;;;;;;4936005;29;20443;-78
2021/07/07 02:22:45;;;;;;;1.43;0.83;;;15.60;99.90;;;;;;4935914;29;20455;-78
2021/07/07 02:25:38;;;;;;;0.70;0.50;;;15.60;99.90;;;;;;4936284;29;20515;-78
2021/07/07 02:28:05;;;;;;;0.80;0.63;;;15.60;99.90;;;;;;4929429;29;20933;-78
2021/07/07 02:30:33;;;;;;;5.90;0.87;;;15.60;99.90;;;;;;4916225;29;20988;-78
2021/07/07 02:32:59;;;;;;;0.80;0.70;;;15.60;99.90;;;;;;4918819;29;20424;-78
2021/07/07 02:35:28;;;;;;;1.03;0.60;;;15.60;99.90;;;;;;4934933;29;20427;-77
2021/07/07 02:37:55;;;;;;;0.70;0.50;;;15.50;99.90;;;;;;4936251;29;20454;-78
2021/07/07 02:40:25;;;;;;;1.47;0.73;;;15.60;99.90;;;;;;4936066;29;20466;-78
2021/07/07 02:42:52;;;;;;;0.70;0.50;;;15.60;99.90;;;;;;4929433;29;20467;-78
2021/07/07 02:45:18;;;;;;;0.70;0.50;;;15.50;99.90;;;;;;4924213;29;20424;-78
2021/07/07 02:47:45;;;;;;;0.70;0.50;;;15.50;99.90;;;;;;4918751;29;20482;-77
2021/07/07 02:50:13;;;;;;;0.70;0.50;;;15.50;99.90;;;;;;4935855;29;20442;-78
2021/07/07 02:52:39;;;;;;;1.20;1.10;;;15.40;99.90;;;;;;4935783;29;20418;-79
2021/07/07 02:55:13;;;;;;;0.70;0.50;;;15.40;99.90;;;;;;4935887;29;20411;-79
2021/07/07 03:00:43;;;;;;;1.23;1.13;;;15.40;99.90;;;;;;4930618;29;21015;-77
2021/07/07 03:03:17;;;;;;;0.70;0.50;;;15.30;99.90;;;;;;4935754;29;20547;-78
2021/07/07 03:05:52;;;;;;;0.70;0.50;;;15.40;99.90;;;;;;4928947;29;20494;-78
2021/07/07 03:08:22;;;;;;;0.80;0.70;;;15.40;99.90;;;;;;4929509;29;20829;-78
2021/07/07 03:10:49;;;;;;;0.80;0.70;;;15.30;99.90;;;;;;4935526;29;20807;-78
2021/07/07 03:13:17;;;;;;;0.70;0.50;;;15.30;99.90;;;;;;4921859;29;21014;-78
2021/07/07 03:15:43;;;;;;;0.70;0.60;;;15.30;99.90;;;;;;4937479;29;20585;-78
2021/07/07 03:18:10;;;;;;;0.70;0.50;;;15.40;99.90;;;;;;4934746;29;21127;-78
2021/07/07 03:20:38;;;;;;;0.70;0.50;;;15.40;99.90;;;;;;4924296;29;20452;-79
2021/07/07 03:23:05;;;;;;;0.70;0.50;;;15.30;99.90;;;;;;4930984;29;20534;-79
2021/07/07 03:25:31;;;;;;;0.70;0.60;;;15.30;99.90;;;;;;4935851;29;20422;-79
2021/07/07 03:27:57;;;;;;;0.70;0.50;;;15.20;99.90;;;;;;4926204;29;20951;-79
2021/07/07 03:30:25;;;;;;;2.93;0.60;;;15.30;99.90;;;;;;4931733;29;20788;-79
2021/07/07 03:32:51;;;;;;;0.90;0.70;;;15.30;99.90;;;;;;4924807;29;20233;-79
2021/07/07 03:35:17;;;;;;;1.60;0.80;;;15.40;99.90;;;;;;4923073;29;21133;-79
2021/07/07 03:37:42;;;;;;;0.70;0.50;;;15.40;99.90;;;;;;4934544;29;20430;-79
2021/07/07 03:40:09;;;;;;;0.70;0.57;;;15.40;99.90;;;;;;4939068;29;20199;-79
2021/07/07 03:42:35;;;;;;;0.70;0.50;;;15.40;99.90;;;;;;4939336;29;20174;-79
2021/07/07 03:45:01;;;;;;;1.40;1.30;;;15.50;99.90;;;;;;4938613;29;20438;-79
2021/07/07 03:47:26;;;;;;;0.70;0.50;;;15.50;99.90;;;;;;4938509;29;20178;-79
2021/07/07 03:49:52;;;;;;;0.73;0.60;;;15.50;99.90;;;;;;4939204;29;20535;-79
2021/07/07 03:52:18;;;;;;;0.73;0.57;;;15.50;99.90;;;;;;4932787;29;20175;-79
2021/07/07 03:54:43;;;;;;;0.80;0.60;;;15.50;99.90;;;;;;4930335;29;20180;-79
2021/07/07 03:57:09;;;;;;;0.70;0.50;;;15.60;99.90;;;;;;4920484;29;20187;-79
2021/07/07 03:59:35;;;;;;;0.70;0.50;;;15.60;99.90;;;;;;4935836;29;20457;-79
2021/07/07 04:02:00;;;;;;;1.00;0.60;;;15.60;99.90;;;;;;4940049;29;20544;-79
2021/07/07 04:04:26;;;;;;;0.70;0.50;;;15.60;99.90;;;;;;4935741;29;20688;-79
2021/07/07 04:06:57;;;;;;;1.07;0.70;;;15.70;99.90;;;;;;4935547;29;20334;-79
2021/07/07 04:09:22;;;;;;;0.90;0.73;;;15.70;99.90;;;;;;4942822;29;20421;-79
2021/07/07 04:11:48;;;;;;;0.70;0.50;;;15.70;99.90;;;;;;4926660;29;20436;-79
2021/07/07 04:14:15;;;;;;;0.70;0.50;;;15.60;99.90;;;;;;4936323;29;20198;-79
2021/07/07 04:16:41;;;;;;;1.00;0.60;;;15.60;99.90;;;;;;4937403;29;20648;-78
2021/07/07 04:19:06;;;;;;;0.90;0.80;;;15.60;99.90;;;;;;4941483;29;20437;-79
2021/07/07 04:21:32;;;;;;;0.70;0.60;;;15.60;99.90;;;;;;4942758;29;20685;-79
2021/07/07 04:23:57;;;;;;;0.70;0.50;;;15.60;99.90;;;;;;4938585;29;20200;-79
2021/07/07 04:26:23;;;;;;;0.70;0.50;;;15.60;99.90;;;;;;4921262;29;20608;-79
2021/07/07 04:28:48;;;;;;;0.70;0.50;;;15.60;99.90;;;;;;4933961;29;20175;-79
2021/07/07 04:31:14;;;;;;;0.80;0.60;;;15.60;99.90;;;;;;4939511;29;20195;-79
2021/07/07 04:33:39;;;;;;;1.53;1.13;;;15.70;99.90;;;;;;4923941;29;20543;-79
2021/07/07 04:36:05;;;;;;;1.37;0.70;;;15.70;99.90;;;;;;4922859;29;20175;-79
2021/07/07 04:38:30;;;;;;;0.70;0.60;;;15.80;99.90;;;;;;4940422;29;20174;-79
2021/07/07 04:40:56;;;;;;;1.10;0.73;;;15.80;99.90;;;;;;4926386;29;20689;-80
2021/07/07 04:43:21;;;;;;;3.90;1.23;;;15.90;99.90;;;;;;4941269;29;20691;-79
2021/07/07 04:45:47;;;;;;;0.70;0.50;;;15.90;99.90;;;;;;4943009;29;20178;-79
2021/07/07 04:48:14;;;;;;;0.80;0.73;;;16.00;99.90;;;;;;4931435;29;20175;-79
2021/07/07 04:50:39;;;;;;;3.70;1.20;;;16.00;99.90;;;;;;4934168;29;20720;-79
2021/07/07 04:53:05;;;;;;;0.70;0.50;;;16.10;99.90;;;;;;4933665;29;20432;-79
2021/07/07 04:55:31;;;;;;;0.80;0.70;;;16.20;99.90;;;;;;4927799;29;20676;-80
2021/07/07 04:57:58;;;;;;;2.20;0.60;;;16.20;99.90;;;;;;4928802;29;20178;-79
2021/07/07 05:00:23;;;;;;;0.80;0.60;;;16.30;99.90;;;;;;4942915;29;20211;-79
2021/07/07 05:02:51;;;;;;;0.80;0.60;;;16.50;99.90;;;;;;4944910;29;20431;-80
2021/07/07 05:05:18;;;;;;;2.73;2.50;;;16.60;99.90;;;;;;4945567;29;20167;-79
2021/07/07 05:07:45;;;;;;;0.70;0.60;;;16.60;99.90;;;;;;4934663;29;20411;-77
2021/07/07 05:10:12;;;;;;;0.80;0.67;;;16.60;99.90;;;;;;4934616;29;20466;-80
2021/07/07 05:12:38;;;;;;;0.80;0.70;;;16.70;99.90;;;;;;4941909;29;20415;-80
2021/07/07 05:15:05;;;;;;;0.70;0.60;;;16.80;99.90;;;;;;4930019;29;20439;-80
2021/07/07 05:17:31;;;;;;;0.90;0.80;;;16.80;99.90;;;;;;4922968;29;20499;-80
2021/07/07 05:19:58;;;;;;;0.70;0.50;;;17.00;99.90;;;;;;4928348;29;20431;-79
2021/07/07 05:22:24;;;;;;;2.60;2.50;;;17.10;99.90;;;;;;4938836;29;20526;-79
2021/07/07 05:24:50;;;;;;;1.27;0.77;;;17.20;99.90;;;;;;4940406;29;21091;-79
2021/07/07 05:27:16;;;;;;;1.03;0.90;;;17.30;99.90;;;;;;4936463;29;20451;-79
2021/07/07 05:29:43;;;;;;;0.80;0.67;;;17.40;99.90;;;;;;4934805;29;20218;-79
2021/07/07 05:32:09;;;;;;;0.80;0.60;;;17.50;99.90;;;;;;4940559;29;20211;-80
2021/07/07 05:34:35;;;;;;;2.33;1.37;;;17.50;99.90;;;;;;4928006;29;20435;-80
2021/07/07 05:37:01;;;;;;;0.80;0.70;;;17.60;99.90;;;;;;4936768;29;20434;-80
2021/07/07 05:39:27;;;;;;;0.70;0.50;;;17.60;99.90;;;;;;4942160;28;20423;-79
2021/07/07 05:41:53;;;;;;;0.70;0.50;;;17.70;99.90;;;;;;4939071;29;20275;-80
2021/07/07 05:44:18;;;;;;;0.80;0.77;;;17.80;99.90;;;;;;4935781;29;20192;-80
2021/07/07 05:46:44;;;;;;;0.70;0.50;;;17.80;99.90;;;;;;4940947;29;20252;-79
2021/07/07 05:49:09;;;;;;;0.70;0.50;;;17.80;99.90;;;;;;4931830;29;20553;-78
2021/07/07 05:51:35;;;;;;;0.77;0.60;;;17.80;99.90;;;;;;4932056;29;20207;-79
2021/07/07 05:54:00;;;;;;;0.80;0.80;;;17.90;99.90;;;;;;4948279;29;20187;-80
2021/07/07 05:56:26;;;;;;;0.80;0.63;;;17.90;99.90;;;;;;4940056;29;20655;-80
2021/07/07 05:58:51;;;;;;;1.87;1.77;;;18.00;99.90;;;;;;4938280;29;20261;-80
2021/07/07 06:01:17;;;;;;;0.80;0.70;;;18.10;99.90;;;;;;4939478;29;20210;-78
2021/07/07 06:03:43;;;;;;;0.70;0.50;;;18.10;99.90;;;;;;4939117;29;20209;-79
2021/07/07 06:06:08;;;;;;;0.70;0.50;;;18.30;99.90;;;;;;4938312;29;20178;-79
2021/07/07 06:08:34;;;;;;;0.70;0.60;;;18.30;99.90;;;;;;4940470;29;20179;-80
2021/07/07 06:11:00;;;;;;;0.70;0.60;;;18.40;99.90;;;;;;4939623;29;20227;-80
2021/07/07 06:13:25;;;;;;;0.93;0.80;;;18.50;99.90;;;;;;4953653;28;20206;-80
2021/07/07 06:15:51;;;;;;;0.97;0.83;;;18.70;99.90;;;;;;4941738;29;20179;-81
2021/07/07 06:18:17;;;;;;;0.80;0.70;;;18.70;99.90;;;;;;4924030;29;20186;-80
2021/07/07 06:20:42;;;;;;;0.73;0.57;;;18.80;99.90;;;;;;4930546;29;20275;-81
2021/07/07 06:23:08;;;;;;;1.03;0.93;;;18.90;99.90;;;;;;4935331;29;20242;-79
2021/07/07 06:25:34;;;;;;;1.30;1.00;;;18.80;99.90;;;;;;4930406;29;20310;-80
2021/07/07 06:28:00;;;;;;;0.90;0.63;;;18.80;99.90;;;;;;4940151;29;20175;-80
2021/07/07 06:30:27;;;;;;;1.57;0.77;;;18.80;99.90;;;;;;4924006;29;20811;-80
2021/07/07 06:32:54;;;;;;;0.70;0.60;;;18.80;99.90;;;;;;4930125;29;20504;-80
2021/07/07 06:35:21;;;;;;;0.80;0.73;;;18.90;99.90;;;;;;4920179;29;20487;-80
2021/07/07 06:37:48;;;;;;;1.23;1.13;;;18.90;99.90;;;;;;4921255;29;20856;-79
2021/07/07 06:40:16;;;;;;;0.80;0.70;;;18.90;99.90;;;;;;4925036;29;20478;-80
2021/07/07 06:42:41;;;;;;;1.43;0.90;;;19.00;99.90;;;;;;4926564;29;20451;-80
2021/07/07 06:45:09;;;;;;;1.10;0.80;;;19.00;99.90;;;;;;4920591;29;20435;-80
2021/07/07 06:47:35;;;;;;;1.97;1.27;;;19.00;99.90;;;;;;4919907;29;20216;-80
2021/07/07 06:50:01;;;;;;;0.90;0.63;;;19.10;99.90;;;;;;4934448;29;20480;-80
2021/07/07 06:52:27;;;;;;;0.70;0.50;;;19.30;99.90;;;;;;4949230;28;20427;-80
2021/07/07 06:54:53;;;;;;;0.80;0.70;;;19.50;99.90;;;;;;4927844;29;20439;-80
2021/07/07 06:57:18;;;;;;;0.77;0.63;;;19.80;99.90;;;;;;4930688;29;20179;-80
2021/07/07 06:59:44;;;;;;;1.97;0.80;;;19.90;99.90;;;;;;4918979;29;20290;-80
2021/07/07 07:02:10;;;;;;;0.70;0.50;;;19.80;99.90;;;;;;4929515;29;20234;-79
2021/07/07 07:04:35;;;;;;;1.00;0.80;;;19.80;99.90;;;;;;4938640;29;20195;-79
2021/07/07 07:07:01;;;;;;;0.70;0.50;;;19.70;99.90;;;;;;4929456;29;20181;-80
2021/07/07 07:09:27;;;;;;;0.70;0.50;;;19.40;99.90;;;;;;4937005;29;20210;-79
2021/07/07 07:11:53;;;;;;;0.80;0.60;;;19.40;99.90;;;;;;4938826;29;20425;-80
2021/07/07 07:14:19;;;;;;;1.20;0.60;;;19.50;99.90;;;;;;4937398;28;20176;-80
2021/07/07 07:16:45;;;;;;;0.70;0.60;;;19.50;99.90;;;;;;4920365;29;20423;-79
2021/07/07 07:19:11;;;;;;;0.80;0.60;;;19.60;99.90;;;;;;4920463;29;20266;-80
2021/07/07 07:21:37;;;;;;;0.80;0.60;;;19.70;99.90;;;;;;4934512;29;20430;-80
2021/07/07 07:24:03;;;;;;;0.80;0.60;;;19.90;99.90;;;;;;4926292;29;20456;-79
2021/07/07 07:26:29;;;;;;;0.70;0.50;;;20.20;99.90;;;;;;4920433;29;20632;-80
2021/07/07 07:28:56;;;;;;;2.07;1.87;;;20.50;99.90;;;;;;4924671;29;20432;-79
2021/07/07 07:31:22;;;;;;;1.00;0.80;;;20.90;99.90;;;;;;4933247;29;20190;-79
2021/07/07 07:33:48;;;;;;;0.80;0.70;;;21.20;99.90;;;;;;4926707;29;20478;-79
2021/07/07 07:36:14;;;;;;;0.80;0.60;;;21.40;99.90;;;;;;4936682;29;20442;-80
2021/07/07 07:38:43;;;;;;;0.80;0.57;;;21.60;99.90;;;;;;4929879;29;20493;-79
2021/07/07 07:41:08;;;;;;;0.80;0.60;;;21.80;99.90;;;;;;4931140;29;20203;-80
2021/07/07 07:43:34;;;;;;;0.80;0.50;;;21.90;99.90;;;;;;4923774;29;20562;-80
2021/07/07 07:46:00;;;;;;;0.77;0.60;;;21.90;99.90;;;;;;4926881;29;20557;-81
2021/07/07 07:48:26;;;;;;;0.77;0.57;;;22.00;99.90;;;;;;4932550;29;20245;-80
2021/07/07 07:50:53;;;;;;;0.90;0.77;;;22.20;99.90;;;;;;4938300;29;20198;-81
2021/07/07 07:53:19;;;;;;;0.90;0.73;;;22.60;99.90;;;;;;4940433;29;20415;-80
2021/07/07 07:55:45;;;;;;;0.83;0.60;;;22.80;99.90;;;;;;4926025;29;20437;-80
2021/07/07 07:58:13;;;;;;;2.40;2.20;;;22.90;99.90;;;;;;4938264;29;20794;-80
2021/07/07 08:00:38;;;;;;;1.23;0.60;;;23.10;99.90;;;;;;4922195;29;20470;-80
2021/07/07 08:03:04;;;;;;;2.30;0.70;;;23.60;99.90;;;;;;4931373;29;20451;-80
2021/07/07 08:05:30;;;;;;;0.80;0.70;;;23.80;99.90;;;;;;4919631;29;20172;-80
2021/07/07 08:08:01;;;;;;;1.07;0.93;;;24.00;99.90;;;;;;4919736;29;20199;-78
2021/07/07 08:10:27;;;;;;;0.90;0.80;;;24.20;99.90;;;;;;4921720;29;20199;-77
2021/07/07 08:12:53;;;;;;;0.97;0.87;;;24.40;99.90;;;;;;4936018;29;20915;-80
2021/07/07 08:15:20;;;;;;;0.80;0.67;;;24.70;99.90;;;;;;4940862;29;20449;-78
2021/07/07 08:17:46;;;;;;;0.80;0.60;;;24.90;99.90;;;;;;4924547;29;20556;-79
2021/07/07 08:20:12;;;;;;;0.80;0.70;;;24.90;99.90;;;;;;4923314;29;20440;-80
2021/07/07 08:22:38;;;;;;;0.80;0.60;;;25.10;99.90;;;;;;4929349;29;20789;-78
2021/07/07 08:25:09;;;;;;;0.90;0.70;;;25.50;99.90;;;;;;4933839;29;20454;-78
2021/07/07 08:27:35;;;;;;;0.90;0.80;;;25.50;99.90;;;;;;4923849;29;20416;-77
2021/07/07 08:30:01;;;;;;;0.80;0.60;;;25.70;99.90;;;;;;4934574;29;20454;-74
2021/07/07 08:32:26;;;;;;;2.37;1.67;;;25.90;99.90;;;;;;4933889;29;21054;-76
2021/07/07 08:34:52;;;;;;;1.37;0.90;;;26.10;99.90;;;;;;4916868;29;20190;-76
2021/07/07 08:37:17;;;;;;;1.00;0.70;;;26.40;99.90;;;;;;4921493;29;20531;-76
2021/07/07 08:39:43;;;;;;;0.80;0.70;;;26.60;99.90;;;;;;4930761;29;20222;-77
2021/07/07 08:42:09;;;;;;;2.33;2.13;;;26.60;99.90;;;;;;4936542;29;20857;-77
2021/07/07 08:44:34;;;;;;;0.80;0.70;;;26.60;99.90;;;;;;4937038;29;20238;-77
2021/07/07 08:47:00;;;;;;;0.80;0.50;;;26.50;99.90;;;;;;4917927;29;20176;-77
2021/07/07 08:49:26;;;;;;;2.40;0.90;;;26.60;99.20;;;;;;4917523;29;20176;-78
2021/07/07 08:51:51;;;;;;;0.80;0.50;;;26.90;99.90;;;;;;4931413;29;20175;-79
2021/07/07 08:54:18;;;;;;;2.77;2.57;;;26.90;97.90;;;;;;4924412;29;20210;-78
2021/07/07 08:56:48;;;;;;;0.80;0.50;;;26.90;98.60;;;;;;4938326;29;20640;-79
2021/07/07 08:59:16;;;;;;;0.90;0.70;;;26.70;98.10;;;;;;4942237;29;20996;-79
2021/07/07 09:02:05;;;;;;;0.80;0.60;;;26.90;98.70;;;;;;4936196;29;20518;-78
2021/07/07 09:04:36;;;;;;;0.80;0.60;;;26.90;95.20;;;;;;4932070;29;20521;-79
2021/07/07 09:07:21;;;;;;;0.83;0.60;;;27.00;97.40;;;;;;4946530;28;20451;-79
2021/07/07 09:09:52;;;;;;;0.90;0.60;;;27.00;98.90;;;;;;4932534;29;20447;-80
2021/07/07 09:12:22;;;;;;;0.90;0.70;;;27.30;98.10;;;;;;4920489;29;20419;-79
2021/07/07 09:15:07;;;;;;;4.23;2.50;;;27.30;95.90;;;;;;4933747;29;20588;-79
2021/07/07 09:17:43;;;;;;;0.90;0.70;;;27.70;97.40;;;;;;4920607;29;20427;-78
2021/07/07 09:20:19;;;;;;;0.90;0.70;;;27.80;93.10;;;;;;4933095;29;20504;-79
2021/07/07 09:22:45;;;;;;;1.37;0.70;;;27.80;93.90;;;;;;4939498;29;20419;-79
2021/07/07 09:25:14;;;;;;;1.30;0.90;;;27.80;92.90;;;;;;4938125;29;20466;-78
2021/07/07 09:27:40;;;;;;;1.00;0.90;;;27.70;90.90;;;;;;4941506;29;20438;-78
2021/07/07 09:30:09;;;;;;;0.80;0.60;;;28.00;93.80;;;;;;4937864;29;20504;-78
2021/07/07 09:32:42;;;;;;;0.90;0.80;;;28.00;91.70;;;;;;4925038;29;21061;-78
2021/07/07 09:35:08;;;;;;;1.00;0.83;;;28.10;90.90;;;;;;4939087;29;20487;-78
2021/07/07 09:37:43;;;;;;;0.83;0.67;;;28.20;90.50;;;;;;4937509;29;20423;-78
2021/07/07 09:40:11;;;;;;;1.13;0.80;;;28.30;90.90;;;;;;4941887;29;20517;-79
2021/07/07 09:42:41;;;;;;;0.97;0.80;;;28.40;93.30;;;;;;4927928;29;20427;-78
2021/07/07 09:45:10;;;;;;;0.90;0.73;;;28.40;87.50;;;;;;4935926;29;20897;-81
2021/07/07 09:47:35;;;;;;;0.80;0.60;;;28.30;88.70;;;;;;4942206;29;20916;-78
2021/07/07 09:50:03;;;;;;;0.90;0.80;;;28.50;87.30;;;;;;4924394;29;20450;-79
2021/07/07 09:52:30;;;;;;;0.87;0.70;;;28.60;87.30;;;;;;4939399;29;20234;-80
2021/07/07 09:54:57;;;;;;;0.93;0.83;;;28.50;88.40;;;;;;4932177;29;20910;-79
2021/07/07 09:57:22;;;;;;;1.00;0.70;;;28.40;81.90;;;;;;4924081;29;20451;-78
2021/07/07 09:59:49;;;;;;;1.00;0.90;;;28.00;84.90;;;;;;4939845;29;20588;-80
2021/07/07 10:02:15;;;;;;;0.80;0.60;;;27.60;84.10;;;;;;4944328;29;20198;-80
2021/07/07 10:04:42;;;;;;;0.97;0.87;;;27.80;89.80;;;;;;4933812;29;20519;-81
2021/07/07 10:07:09;;;;;;;0.90;0.70;;;27.70;90.70;;;;;;4917532;29;20514;-82
2021/07/07 10:09:38;;;;;;;0.80;0.60;;;27.50;90.70;;;;;;4922432;29;20446;-80
2021/07/07 10:12:05;;;;;;;1.00;0.70;;;27.30;91.00;;;;;;4923185;29;20835;-80
2021/07/07 10:14:31;;;;;;;0.80;0.60;;;27.10;91.60;;;;;;4928583;29;20462;-79
2021/07/07 10:16:58;;;;;;;0.90;0.80;;;27.30;91.90;;;;;;4934056;29;20490;-80
2021/07/07 10:19:25;;;;;;;1.00;0.80;;;27.50;90.00;;;;;;4940087;29;20450;-79
2021/07/07 10:21:51;;;;;;;0.90;0.73;;;27.70;89.60;;;;;;4929045;29;20447;-79
2021/07/07 10:24:21;;;;;;;0.80;0.60;;;28.00;89.70;;;;;;4929133;29;20477;-78
2021/07/07 10:26:48;;;;;;;0.90;0.73;;;28.10;82.00;;;;;;4942809;29;20179;-78
2021/07/07 10:29:14;;;;;;;0.93;0.80;;;28.30;82.60;;;;;;4928728;29;20435;-80
2021/07/07 10:31:50;;;;;;;0.97;0.87;;;28.40;81.60;;;;;;4918953;29;20451;-78
2021/07/07 10:34:17;;;;;;;1.50;1.40;;;28.40;78.10;;;;;;4935617;29;20433;-79
2021/07/07 10:36:44;;;;;;;0.90;0.70;;;28.40;80.70;;;;;;4932870;29;20482;-79
2021/07/07 10:39:13;;;;;;;1.00;0.80;;;28.60;80.40;;;;;;4950254;28;20432;-80
2021/07/07 10:41:42;;;;;;;0.87;0.70;;;28.10;76.80;;;;;;4925057;29;20426;-80
2021/07/07 10:44:08;;;;;;;1.10;0.80;;;28.00;74.70;;;;;;4937582;29;20486;-80
2021/07/07 10:47:13;;;;;;;0.80;0.60;;;28.30;82.80;;;;;;4939260;29;20470;-79
2021/07/07 10:49:54;;;;;;;0.90;0.70;;;28.40;81.50;;;;;;4916618;29;20454;-78
2021/07/07 10:52:40;;;;;;;1.00;0.80;;;28.60;76.90;;;;;;4937859;29;20513;-78
2021/07/07 10:55:09;;;;;;;0.80;0.60;;;28.40;75.80;;;;;;4920392;29;20412;-78
2021/07/07 10:57:35;;;;;;;1.00;0.70;;;28.20;78.20;;;;;;4926404;29;20534;-79
2021/07/07 11:00:05;;;;;;;1.00;0.90;;;28.00;78.60;;;;;;4923934;29;20461;-78
2021/07/07 11:02:31;;;;;;;0.80;0.50;;;27.70;81.10;;;;;;4923337;29;20514;-78
2021/07/07 11:05:01;;;;;;;0.80;0.60;;;27.50;77.70;;;;;;4920001;29;20518;-78
2021/07/07 11:07:39;;;;;;;0.80;0.60;;;27.40;82.10;;;;;;4930862;29;20180;-78
2021/07/07 11:10:19;;;;;;;0.90;0.70;;;27.20;85.80;;;;;;4923270;29;20439;-78
2021/07/07 11:12:45;;;;;;;2.87;2.63;;;27.10;85.90;;;;;;4921418;29;20791;-78
2021/07/07 11:15:15;;;;;;;1.00;0.83;;;27.10;86.20;;;;;;4918070;29;20431;-77
2021/07/07 11:17:46;;;;;;;0.80;0.60;;;26.90;83.80;;;;;;4917544;29;20203;-77
2021/07/07 11:20:23;;;;;;;0.80;0.60;;;26.90;80.70;;;;;;4922179;29;20442;-78
2021/07/07 11:23:01;;;;;;;0.80;0.50;;;26.80;83.50;;;;;;4937069;29;20462;-78
2021/07/07 11:25:29;;;;;;;0.90;0.70;;;26.60;84.10;;;;;;4920889;29;20522;-78
2021/07/07 11:27:55;;;;;;;0.80;0.60;;;26.60;85.80;;;;;;4927545;29;20423;-78
2021/07/07 11:30:23;;;;;;;0.80;0.60;;;26.50;87.80;;;;;;4928246;29;20468;-77
2021/07/07 11:32:54;;;;;;;1.30;1.03;;;26.40;88.30;;;;;;4936075;29;20423;-78
2021/07/07 11:35:29;;;;;;;0.80;0.67;;;26.40;88.40;;;;;;4920632;29;20407;-77
2021/07/07 11:37:58;;;;;;;0.80;0.60;;;26.30;86.50;;;;;;4919317;29;20471;-78
2021/07/07 11:40:24;;;;;;;0.90;0.70;;;26.20;88.50;;;;;;4928386;29;20538;-78
2021/07/07 11:42:57;;;;;;;0.80;0.60;;;26.10;87.50;;;;;;4923476;29;20431;-78
2021/07/07 11:45:27;;;;;;;0.90;0.67;;;26.20;88.00;;;;;;4923589;29;20912;-77
2021/07/07 11:47:58;;;;;;;2.53;2.33;;;26.30;91.20;;;;;;4932975;29;20493;-78
2021/07/07 11:50:26;;;;;;;0.90;0.60;;;26.20;88.40;;;;;;4935787;29;20816;-78
2021/07/07 11:53:05;;;;;;;0.90;0.80;;;26.20;90.80;;;;;;4934605;29;20431;-77
2021/07/07 11:55:49;;;;;;;1.10;0.70;;;26.10;91.20;;;;;;4921355;29;20790;-78
2021/07/07 11:58:44;;;;;;;0.90;0.70;;;26.10;91.70;;;;;;4933679;29;20446;-78
2021/07/07 12:01:17;;;;;;;0.97;0.70;;;26.10;93.40;;;;;;4942660;29;20474;-78
2021/07/07 12:03:59;;;;;;;4.93;1.37;;;26.10;94.70;;;;;;4933632;29;20542;-80
2021/07/07 12:06:34;;;;;;;0.80;0.60;;;26.20;93.00;;;;;;4922358;29;21112;-78
2021/07/07 12:09:05;;;;;;;1.00;0.80;;;26.40;96.80;;;;;;4931078;29;20430;-77
2021/07/07 12:11:31;;;;;;;0.93;0.70;;;26.60;94.60;;;;;;4931354;29;20462;-78
2021/07/07 12:13:57;;;;;;;1.00;0.80;;;26.80;94.00;;;;;;4930650;29;20442;-79
2021/07/07 12:16:40;;;;;;;1.00;0.90;;;27.20;94.40;;;;;;4934471;29;20531;-79
2021/07/07 12:19:11;;;;;;;0.90;0.70;;;27.50;93.80;;;;;;4933568;29;20477;-79
2021/07/07 12:21:43;;;;;;;1.00;0.90;;;27.60;94.10;;;;;;4928800;29;20507;-80
2021/07/07 12:24:14;;;;;;;1.00;0.80;;;27.70;94.10;;;;;;4935573;29;20482;-77
2021/07/07 12:26:46;;;;;;;0.90;0.63;;;27.60;92.10;;;;;;4947704;28;20434;-78
2021/07/07 12:29:18;;;;;;;0.80;0.70;;;27.60;93.20;;;;;;4933362;29;20438;-78
2021/07/07 12:31:45;;;;;;;0.90;0.67;;;27.70;94.80;;;;;;4939188;29;20917;-78
2021/07/07 12:34:12;;;;;;;0.80;0.63;;;28.00;94.40;;;;;;4938342;29;20455;-78
2021/07/07 12:36:39;;;;;;;0.80;0.60;;;28.20;96.10;;;;;;4938673;29;20481;-78
2021/07/07 12:39:15;;;;;;;0.90;0.70;;;28.40;95.00;;;;;;4938956;29;20799;-81
2021/07/07 12:41:44;;;;;;;0.80;0.60;;;28.50;95.30;;;;;;4936479;29;20887;-81
2021/07/07 12:44:12;;;;;;;0.80;0.70;;;28.60;96.20;;;;;;4930489;29;20533;-78
2021/07/07 12:46:50;;;;;;;1.00;0.80;;;28.20;90.50;;;;;;4919665;29;20419;-78
2021/07/07 12:49:22;;;;;;;0.80;0.60;;;28.00;92.90;;;;;;4927165;29;20446;-77
2021/07/07 12:51:51;;;;;;;0.90;0.70;;;27.90;92.40;;;;;;4922396;29;20462;-77
2021/07/07 12:54:19;;;;;;;0.80;0.60;;;28.00;93.20;;;;;;4935576;29;20450;-78